Time;durP1;ratioP1;P1;durP2;ratioP2;P2;SDS_P1;SDS_P2;PMS_P1;PMS_P2;Temp;Humidity;BMP_temperature;BMP_pressure;BME280_temperature;BME280_humidity;BME280_pressure;Samples;Min_cycle;Max_cycle;Signal;HPM_P1;HPM_P2
2021/05/08 00:01:22;;;;;;;4.35;3.17;;;;;;;8.99;52.96;100017.63;5034376;28;20570;-82
2021/05/08 00:03:48;;;;;;;6.18;3.40;;;;;;;8.98;53.17;100010.66;5035753;28;20483;-82
2021/05/08 00:06:14;;;;;;;6.07;3.70;;;;;;;8.96;52.76;100009.88;5035398;28;20418;-82
2021/05/08 00:08:40;;;;;;;5.85;3.72;;;;;;;8.94;53.25;100013.50;5035887;28;20049;-81
2021/05/08 00:11:06;;;;;;;4.13;3.63;;;;;;;8.92;53.01;100013.56;5035681;28;20060;-81
2021/05/08 00:13:33;;;;;;;4.25;3.30;;;;;;;8.92;53.32;100017.97;5035844;28;20058;-82
2021/05/08 00:16:00;;;;;;;6.75;3.83;;;;;;;8.91;53.22;100016.28;5035483;28;20388;-81
2021/05/08 00:18:26;;;;;;;5.45;3.67;;;;;;;8.90;53.33;100022.44;5035391;28;20057;-82
2021/05/08 00:20:52;;;;;;;6.55;3.72;;;;;;;8.88;53.20;100025.13;5035463;28;20131;-81
2021/05/08 00:23:19;;;;;;;7.80;3.70;;;;;;;8.85;53.20;100014.78;5027767;28;20427;-82
2021/05/08 00:25:45;;;;;;;5.93;3.60;;;;;;;8.81;53.32;100014.06;5015575;28;20042;-81
2021/05/08 00:28:11;;;;;;;4.78;3.67;;;;;;;8.80;53.59;100009.75;5015295;28;20046;-82
2021/05/08 00:30:37;;;;;;;7.25;3.35;;;;;;;8.78;53.84;100018.63;5014020;28;20049;-82
2021/05/08 00:33:03;;;;;;;6.40;3.72;;;;;;;8.76;53.59;100013.44;5014039;28;20054;-82
2021/05/08 00:35:29;;;;;;;7.68;3.40;;;;;;;8.73;53.70;100008.31;5015466;28;20365;-82
2021/05/08 00:37:55;;;;;;;6.38;3.78;;;;;;;8.71;53.47;100008.38;5015550;28;20053;-82
2021/05/08 00:40:22;;;;;;;4.85;3.53;;;;;;;8.69;53.93;100002.38;5019256;28;20057;-82
2021/05/08 00:42:48;;;;;;;5.78;3.33;;;;;;;8.68;53.88;100007.69;5015564;28;20046;-82
2021/05/08 00:45:14;;;;;;;3.55;2.95;;;;;;;8.66;53.76;100002.50;5014178;28;20054;-82
2021/05/08 00:47:49;;;;;;;5.15;3.22;;;;;;;8.63;53.85;100000.00;5015164;28;20054;-82
2021/05/08 00:50:20;;;;;;;4.90;3.35;;;;;;;8.62;54.10;100000.94;5015168;28;20069;-82
2021/05/08 00:52:47;;;;;;;3.92;3.15;;;;;;;8.61;54.17;99996.59;5014026;28;20061;-80
2021/05/08 00:55:13;;;;;;;6.13;3.65;;;;;;;8.61;54.06;100001.84;5015407;28;20053;-81
2021/05/08 00:57:39;;;;;;;5.45;3.22;;;;;;;8.59;54.22;99991.44;5034937;28;20056;-82
2021/05/08 01:00:08;;;;;;;5.93;3.25;;;;;;;8.58;54.20;99988.88;5034530;28;20062;-83
2021/05/08 01:02:35;;;;;;;5.90;3.30;;;;;;;8.57;54.51;99987.16;5034584;28;20741;-82
2021/05/08 01:05:02;;;;;;;5.30;3.30;;;;;;;8.56;54.44;99990.72;5034572;28;20049;-82
2021/05/08 01:07:28;;;;;;;5.85;3.42;;;;;;;8.55;54.46;99999.50;5034864;28;20391;-81
2021/05/08 01:09:55;;;;;;;5.35;3.30;;;;;;;8.54;54.47;99992.53;5034501;28;20510;-82
2021/05/08 01:12:21;;;;;;;6.72;3.45;;;;;;;8.53;54.32;99985.59;5034463;28;20049;-81
2021/05/08 01:14:48;;;;;;;5.63;3.70;;;;;;;8.52;54.32;99991.75;5034556;28;20507;-82
2021/05/08 01:17:15;;;;;;;3.83;3.13;;;;;;;8.50;54.53;99994.44;5034756;28;20382;-82
2021/05/08 01:19:41;;;;;;;6.32;3.10;;;;;;;8.50;54.58;99999.69;5034660;28;20073;-82
2021/05/08 01:22:08;;;;;;;8.85;3.03;;;;;;;8.51;54.47;99992.63;5034268;28;20076;-81
2021/05/08 01:24:34;;;;;;;7.50;3.25;;;;;;;8.51;54.54;99992.63;5034271;28;20050;-83
2021/05/08 01:27:00;;;;;;;4.55;3.63;;;;;;;8.48;54.24;99988.38;5033921;28;20510;-82
2021/05/08 01:29:26;;;;;;;5.10;3.30;;;;;;;8.46;54.17;99985.81;5028564;28;20061;-82
2021/05/08 01:31:52;;;;;;;7.50;4.10;;;;;;;8.43;54.39;99991.22;5014261;28;20089;-82
2021/05/08 01:34:18;;;;;;;5.75;3.95;;;;;;;8.40;54.01;99986.09;5014360;28;20089;-81
2021/05/08 01:36:44;;;;;;;6.50;3.47;;;;;;;8.38;54.22;99982.72;5014186;28;20488;-81
2021/05/08 01:39:10;;;;;;;7.13;3.88;;;;;;;8.35;54.10;99988.09;5014318;28;20049;-82
2021/05/08 01:41:36;;;;;;;13.13;4.18;;;;;;;8.33;54.24;99982.03;5023845;28;20061;-82
2021/05/08 01:44:04;;;;;;;5.82;3.42;;;;;;;8.30;54.46;99984.81;5033567;28;20049;-82
2021/05/08 01:46:31;;;;;;;6.53;3.97;;;;;;;8.27;54.33;99984.94;5032651;28;20060;-82
2021/05/08 01:48:59;;;;;;;5.75;3.60;;;;;;;8.23;54.32;99986.88;5033873;28;20049;-82
2021/05/08 01:51:25;;;;;;;6.43;3.97;;;;;;;8.19;54.45;99978.25;5034069;28;20510;-82
2021/05/08 01:53:52;;;;;;;4.28;3.40;;;;;;;8.18;55.02;99975.69;5032181;28;20050;-81
2021/05/08 01:56:18;;;;;;;5.47;3.63;;;;;;;8.15;54.89;99974.06;5017386;28;20133;-81
2021/05/08 01:58:44;;;;;;;5.95;3.67;;;;;;;8.15;55.08;99976.69;5013847;28;20056;-82
2021/05/08 02:01:10;;;;;;;5.00;4.18;;;;;;;8.14;54.97;99975.00;5014168;28;20058;-81
2021/05/08 02:03:40;;;;;;;5.32;3.88;;;;;;;8.14;54.83;99977.63;5013455;28;20505;-80
2021/05/08 02:06:06;;;;;;;6.10;3.72;;;;;;;8.12;54.92;99974.22;5012389;28;20057;-81
2021/05/08 02:08:33;;;;;;;5.50;4.07;;;;;;;8.11;54.97;99972.50;5013736;28;20093;-82
2021/05/08 02:10:59;;;;;;;6.10;4.00;;;;;;;8.08;54.87;99972.66;5013442;28;20400;-81
2021/05/08 02:13:25;;;;;;;5.45;4.45;;;;;;;8.07;55.04;99970.91;5033507;28;20045;-81
2021/05/08 02:15:51;;;;;;;5.43;4.28;;;;;;;8.06;55.33;99979.72;5033028;28;20046;-81
2021/05/08 02:18:18;;;;;;;6.65;4.60;;;;;;;8.04;55.04;99971.06;5033884;28;20056;-82
2021/05/08 02:20:45;;;;;;;5.72;4.57;;;;;;;8.02;55.04;99972.91;5034165;28;20457;-81
2021/05/08 02:23:14;;;;;;;6.18;3.90;;;;;;;8.00;55.19;99977.38;5034021;28;20081;-82
2021/05/08 02:25:40;;;;;;;8.30;4.18;;;;;;;7.98;55.00;99979.19;5033446;28;20049;-82
2021/05/08 02:28:07;;;;;;;7.25;4.45;;;;;;;7.95;55.23;99981.03;5027277;28;20045;-81
2021/05/08 02:30:36;;;;;;;7.85;5.05;;;;;;;7.92;55.16;99975.91;5012931;28;20591;-81
2021/05/08 02:33:03;;;;;;;5.95;4.85;;;;;;;7.89;55.04;99968.16;5013789;28;20053;-82
2021/05/08 02:35:30;;;;;;;8.95;4.85;;;;;;;7.84;55.16;99969.31;5012818;28;20050;-82
2021/05/08 02:37:58;;;;;;;7.20;5.30;;;;;;;7.78;55.01;99967.78;5013861;28;20057;-81
2021/05/08 02:40:27;;;;;;;10.10;5.25;;;;;;;7.71;54.80;99967.19;5014086;28;20057;-82
2021/05/08 02:42:54;;;;;;;6.85;4.97;;;;;;;7.64;55.20;99961.34;5012269;28;20049;-81
2021/05/08 02:45:20;;;;;;;7.18;4.53;;;;;;;7.56;55.47;99964.28;5013978;28;20427;-82
2021/05/08 02:47:50;;;;;;;8.50;5.05;;;;;;;7.51;55.61;99966.25;5014005;28;20064;-81
2021/05/08 02:50:18;;;;;;;8.60;4.97;;;;;;;7.47;55.74;99974.31;5013176;28;20046;-81
2021/05/08 02:52:45;;;;;;;6.55;4.82;;;;;;;7.43;55.63;99963.94;5013614;28;20454;-81
2021/05/08 02:55:13;;;;;;;8.90;5.07;;;;;;;7.40;56.01;99958.81;5013574;28;20392;-82
2021/05/08 02:57:39;;;;;;;7.72;5.18;;;;;;;7.38;56.00;99958.03;5013530;28;20050;-81
2021/05/08 03:00:08;;;;;;;6.88;4.95;;;;;;;7.37;56.02;99951.06;5013245;28;20050;-81
2021/05/08 03:02:34;;;;;;;6.82;5.40;;;;;;;7.37;55.93;99956.31;5014025;28;20057;-82
2021/05/08 03:05:01;;;;;;;8.98;5.50;;;;;;;7.37;56.34;99955.47;5012148;28;20050;-82
2021/05/08 03:07:27;;;;;;;8.18;5.97;;;;;;;7.37;56.15;99953.69;5012461;28;20046;-82
2021/05/08 03:09:53;;;;;;;8.15;6.25;;;;;;;7.37;56.50;99953.69;5017550;28;20050;-82
2021/05/08 03:12:20;;;;;;;9.20;5.75;;;;;;;7.37;56.30;99945.84;5017520;28;20053;-82
2021/05/08 03:14:47;;;;;;;9.20;6.53;;;;;;;7.38;56.17;99944.09;5017510;28;20461;-81
2021/05/08 03:17:13;;;;;;;8.15;6.90;;;;;;;7.38;56.32;99941.47;5017888;28;20042;-82
2021/05/08 03:19:39;;;;;;;8.55;6.65;;;;;;;7.38;56.13;99942.34;5017654;28;20050;-81
2021/05/08 03:22:05;;;;;;;8.90;5.80;;;;;;;7.37;55.82;99939.78;5017412;28;20054;-82
2021/05/08 03:24:32;;;;;;;7.95;6.45;;;;;;;7.36;56.03;99940.69;5016228;28;20407;-82
2021/05/08 03:26:59;;;;;;;9.95;7.18;;;;;;;7.34;55.80;99951.22;5017542;28;20050;-81
2021/05/08 03:29:26;;;;;;;9.85;7.85;;;;;;;7.31;56.10;99946.09;5017567;28;20054;-81
2021/05/08 03:31:52;;;;;;;10.25;7.63;;;;;;;7.28;56.05;99947.09;5016487;28;20388;-82
2021/05/08 03:34:18;;;;;;;8.15;7.15;;;;;;;7.26;55.99;99941.03;5016128;28;20060;-81
2021/05/08 03:36:44;;;;;;;8.75;7.00;;;;;;;7.24;56.14;99942.88;5016095;28;20057;-81
2021/05/08 03:39:10;;;;;;;9.75;7.55;;;;;;;7.23;56.11;99935.09;5017624;28;20056;-82
2021/05/08 03:41:37;;;;;;;10.35;8.50;;;;;;;7.23;56.50;99937.69;5016857;28;20046;-81
2021/05/08 03:44:03;;;;;;;12.18;7.65;;;;;;;7.21;56.24;99942.16;5016407;28;20057;-81
2021/05/08 03:46:29;;;;;;;10.73;8.70;;;;;;;7.20;56.30;99937.81;5025240;28;20498;-82
2021/05/08 03:48:56;;;;;;;10.60;7.45;;;;;;;7.19;56.17;99938.72;5036297;28;20499;-81
2021/05/08 03:51:24;;;;;;;10.52;8.27;;;;;;;7.16;56.51;99929.25;5036193;28;20132;-81
2021/05/08 03:53:52;;;;;;;9.90;7.70;;;;;;;7.13;56.19;99940.69;5036502;28;20049;-82
2021/05/08 03:56:18;;;;;;;13.50;8.00;;;;;;;7.12;56.17;99932.91;5036242;28;20046;-81
2021/05/08 03:58:44;;;;;;;9.27;7.93;;;;;;;7.08;56.62;99926.94;5036108;28;20060;-81
2021/05/08 04:01:10;;;;;;;9.55;6.93;;;;;;;7.06;56.39;99927.91;5036752;28;20438;-82
2021/05/08 04:03:37;;;;;;;9.88;7.05;;;;;;;7.04;56.74;99927.97;5034683;28;20049;-81
2021/05/08 04:06:03;;;;;;;10.13;7.93;;;;;;;7.03;56.75;99926.28;5016961;28;20514;-82
2021/05/08 04:08:29;;;;;;;10.02;8.07;;;;;;;7.03;56.96;99928.88;5017330;28;20136;-82
2021/05/08 04:10:55;;;;;;;9.60;7.97;;;;;;;7.03;56.81;99923.66;5016501;28;20061;-82
2021/05/08 04:13:21;;;;;;;10.75;8.43;;;;;;;7.03;57.00;99928.88;5016234;28;20060;-82
2021/05/08 04:15:48;;;;;;;13.93;7.85;;;;;;;7.03;56.66;99926.28;5016079;28;20050;-81
2021/05/08 04:18:14;;;;;;;11.95;8.18;;;;;;;7.03;56.99;99927.09;5016665;28;20049;-82
2021/05/08 04:20:40;;;;;;;12.48;8.02;;;;;;;7.04;56.92;99938.44;5015753;28;20057;-81
2021/05/08 04:23:07;;;;;;;9.90;8.27;;;;;;;7.03;56.95;99926.28;5016810;28;20084;-81
2021/05/08 04:25:33;;;;;;;13.02;8.43;;;;;;;7.03;57.17;99928.88;5016290;28;20071;-82
2021/05/08 04:27:59;;;;;;;11.02;8.15;;;;;;;7.06;57.26;99930.53;5016521;28;20048;-81
2021/05/08 04:30:25;;;;;;;11.20;8.45;;;;;;;7.08;57.32;99937.41;5015179;28;20049;-82
2021/05/08 04:33:11;;;;;;;10.93;7.85;;;;;;;7.11;57.24;99928.59;5016046;28;20049;-81
2021/05/08 04:35:37;;;;;;;11.15;8.90;;;;;;;7.14;57.09;99937.16;5023543;28;20081;-81
2021/05/08 04:38:04;;;;;;;10.13;8.20;;;;;;;7.17;57.24;99942.28;5034207;28;20048;-82
2021/05/08 04:40:31;;;;;;;12.80;8.57;;;;;;;7.21;57.24;99939.53;5035016;28;20049;-82
2021/05/08 04:42:58;;;;;;;10.00;8.48;;;;;;;7.24;57.11;99936.78;5034314;28;20053;-82
2021/05/08 04:45:25;;;;;;;11.07;8.30;;;;;;;7.26;57.16;99934.97;5034899;28;20060;-82
2021/05/08 04:47:56;;;;;;;13.38;9.00;;;;;;;7.26;56.79;99937.59;5035266;28;20045;-82
2021/05/08 04:50:24;;;;;;;13.15;9.93;;;;;;;7.29;56.81;99945.31;5035673;28;20103;-81
2021/05/08 04:52:51;;;;;;;13.52;10.55;;;;;;;7.27;57.08;99939.28;5022316;28;20133;-81
2021/05/08 04:55:17;;;;;;;13.20;10.35;;;;;;;7.26;56.67;99945.44;5015009;28;20064;-81
2021/05/08 04:57:47;;;;;;;15.68;9.73;;;;;;;7.24;57.14;99945.50;5015427;28;20081;-81
2021/05/08 05:00:15;;;;;;;12.25;9.80;;;;;;;7.23;56.96;99948.19;5014611;28;20050;-81
2021/05/08 05:02:42;;;;;;;13.55;10.63;;;;;;;7.22;57.33;99949.09;5014638;28;20050;-81
2021/05/08 05:05:13;;;;;;;12.82;10.07;;;;;;;7.20;57.21;99940.44;5014492;28;20050;-82
2021/05/08 05:07:47;;;;;;;15.57;10.13;;;;;;;7.20;57.19;99945.66;5014510;28;20049;-81
2021/05/08 05:10:14;;;;;;;13.85;10.23;;;;;;;7.22;57.59;99944.69;5014066;28;20053;-81
2021/05/08 05:12:41;;;;;;;12.90;10.25;;;;;;;7.22;57.53;99942.06;5022920;28;20091;-81
2021/05/08 05:15:08;;;;;;;14.23;10.10;;;;;;;7.25;57.90;99944.56;5021433;28;20049;-81
2021/05/08 05:17:35;;;;;;;13.82;9.00;;;;;;;7.28;57.65;99941.84;5014622;28;20046;-81
2021/05/08 05:20:03;;;;;;;13.15;9.05;;;;;;;7.33;57.80;99931.16;5014716;28;20081;-81
2021/05/08 05:22:29;;;;;;;13.35;8.90;;;;;;;7.38;57.85;99938.84;5014280;28;20061;-82
2021/05/08 05:24:55;;;;;;;15.70;8.90;;;;;;;7.45;57.97;99940.31;5022809;28;20054;-82
2021/05/08 05:27:21;;;;;;;11.38;8.50;;;;;;;7.51;57.90;99942.66;5034124;28;20060;-81
2021/05/08 05:29:48;;;;;;;12.07;9.35;;;;;;;7.56;57.90;99932.00;5033732;28;20053;-81
2021/05/08 05:32:14;;;;;;;12.90;9.43;;;;;;;7.62;57.62;99936.97;5033647;28;20057;-82
2021/05/08 05:34:41;;;;;;;13.18;9.38;;;;;;;7.68;57.90;99934.13;5034886;28;20482;-82
2021/05/08 05:37:07;;;;;;;11.18;8.95;;;;;;;7.74;57.91;99932.16;5034862;28;20066;-82
2021/05/08 05:39:34;;;;;;;11.43;9.50;;;;;;;7.80;57.80;99940.59;5034912;28;20053;-81
2021/05/08 05:42:00;;;;;;;12.25;9.00;;;;;;;7.85;57.58;99942.19;5032578;28;20056;-81
2021/05/08 05:44:26;;;;;;;16.63;9.98;;;;;;;7.90;57.58;99941.06;5024721;28;20228;-82
2021/05/08 05:46:52;;;;;;;12.32;9.68;;;;;;;7.95;57.71;99940.84;5012841;28;20054;-81
2021/05/08 05:49:19;;;;;;;12.55;9.75;;;;;;;7.99;57.64;99931.09;5013138;28;20133;-81
2021/05/08 05:51:45;;;;;;;13.25;9.30;;;;;;;8.05;57.87;99938.69;5013531;28;20053;-81
2021/05/08 05:54:11;;;;;;;12.05;9.55;;;;;;;8.10;57.80;99939.34;5013058;28;20046;-81
2021/05/08 05:56:38;;;;;;;13.95;10.02;;;;;;;8.14;57.64;99946.16;5013823;28;20046;-82
2021/05/08 05:59:04;;;;;;;13.32;9.82;;;;;;;8.19;57.65;99943.34;5014825;28;20419;-81
2021/05/08 06:01:30;;;;;;;13.52;10.00;;;;;;;8.24;57.59;99945.75;5013689;28;20054;-81
2021/05/08 06:03:56;;;;;;;15.52;10.50;;;;;;;8.29;58.10;99942.00;5013893;28;20061;-81
2021/05/08 06:06:22;;;;;;;16.85;9.43;;;;;;;8.35;58.02;99946.97;5014170;28;20045;-81
2021/05/08 06:08:48;;;;;;;12.90;9.27;;;;;;;8.43;57.84;99940.53;5013846;28;20096;-81
2021/05/08 06:11:14;;;;;;;14.32;9.45;;;;;;;8.50;57.91;99933.22;5013548;28;20491;-82
2021/05/08 06:13:41;;;;;;;14.73;9.20;;;;;;;8.58;57.76;99939.88;5012525;28;20045;-80
2021/05/08 06:16:07;;;;;;;14.60;9.43;;;;;;;8.66;57.90;99938.66;5013910;28;20077;-82
2021/05/08 06:18:34;;;;;;;11.32;9.18;;;;;;;8.76;58.15;99942.56;5013403;28;20104;-81
2021/05/08 06:21:06;;;;;;;12.80;9.32;;;;;;;8.86;57.66;99937.75;5013572;28;20082;-81
2021/05/08 06:23:32;;;;;;;14.50;10.57;;;;;;;8.97;57.57;99942.50;5013433;28;20057;-82
2021/05/08 06:25:58;;;;;;;13.63;10.40;;;;;;;9.07;57.52;99942.88;5013676;28;20061;-82
2021/05/08 06:28:24;;;;;;;17.67;10.43;;;;;;;9.14;57.31;99931.16;5012999;28;20053;-81
2021/05/08 06:30:54;;;;;;;13.57;10.25;;;;;;;9.22;57.22;99942.16;5014972;28;20050;-81
2021/05/08 06:33:22;;;;;;;15.65;9.90;;;;;;;9.28;56.95;99945.41;5021033;28;20049;-82
2021/05/08 06:35:48;;;;;;;14.50;11.38;;;;;;;9.33;56.82;99943.41;5033208;28;20057;-81
2021/05/08 06:38:14;;;;;;;16.80;11.85;;;;;;;9.36;56.53;99959.03;5032412;28;20049;-82
2021/05/08 06:40:40;;;;;;;13.85;10.32;;;;;;;9.39;57.07;99951.81;5032862;28;20053;-82
2021/05/08 06:43:06;;;;;;;14.15;10.23;;;;;;;9.44;56.95;99959.50;5031502;28;20054;-82
2021/05/08 06:45:35;;;;;;;13.63;9.77;;;;;;;9.49;56.87;99954.00;5026024;28;20414;-82
2021/05/08 06:48:02;;;;;;;16.10;10.70;;;;;;;9.55;57.14;99951.09;5011856;28;20125;-82
2021/05/08 06:50:29;;;;;;;15.98;10.38;;;;;;;9.60;56.83;99951.69;5013075;28;20054;-82
2021/05/08 06:52:55;;;;;;;14.18;10.13;;;;;;;9.69;57.24;99954.78;5012143;28;20050;-82
2021/05/08 06:55:21;;;;;;;12.75;9.43;;;;;;;9.80;57.04;99951.63;5013146;28;20129;-82
2021/05/08 06:57:50;;;;;;;12.50;9.82;;;;;;;9.87;56.89;99943.34;5013977;28;20046;-82
2021/05/08 07:00:17;;;;;;;14.13;9.88;;;;;;;9.98;57.29;99945.41;5012716;28;20050;-81
2021/05/08 07:02:43;;;;;;;13.18;9.77;;;;;;;10.10;57.23;99937.84;5012379;28;20083;-82
2021/05/08 07:05:10;;;;;;;13.88;9.88;;;;;;;10.21;57.16;99935.47;5012587;28;20054;-82
2021/05/08 07:07:36;;;;;;;15.93;9.88;;;;;;;10.35;56.91;99940.00;5012284;28;20046;-82
2021/05/08 07:10:06;;;;;;;13.63;9.45;;;;;;;10.47;56.61;99935.91;5013003;28;20096;-82
2021/05/08 07:12:32;;;;;;;15.55;10.15;;;;;;;10.61;56.65;99929.91;5014331;28;20057;-82
2021/05/08 07:14:59;;;;;;;12.32;9.70;;;;;;;10.73;56.85;99936.28;5012217;28;20056;-82
2021/05/08 07:17:25;;;;;;;15.60;10.25;;;;;;;10.86;56.70;99931.19;5010956;28;20046;-81
2021/05/08 07:19:52;;;;;;;14.07;10.40;;;;;;;10.99;56.63;99931.34;5012499;28;20050;-82
2021/05/08 07:22:18;;;;;;;15.80;11.02;;;;;;;11.12;56.10;99931.50;5011637;28;20053;-82
2021/05/08 07:24:45;;;;;;;15.18;10.85;;;;;;;11.24;56.01;99929.97;5012624;28;20053;-82
2021/05/08 07:27:12;;;;;;;14.18;10.93;;;;;;;11.36;55.76;99930.22;5012786;28;20049;-81
2021/05/08 07:29:38;;;;;;;14.65;11.75;;;;;;;11.48;55.84;99921.59;5021418;28;20053;-82
2021/05/08 07:32:04;;;;;;;13.90;10.80;;;;;;;11.61;55.79;99921.72;5032754;28;20057;-82
2021/05/08 07:34:31;;;;;;;14.93;10.98;;;;;;;11.72;55.28;99923.72;5031894;28;20053;-81
2021/05/08 07:36:57;;;;;;;14.45;11.48;;;;;;;11.82;54.20;99922.22;5032024;28;20060;-82
2021/05/08 07:39:24;;;;;;;16.42;11.20;;;;;;;11.92;54.36;99921.69;5030591;28;20065;-82
2021/05/08 07:41:50;;;;;;;16.52;10.27;;;;;;;11.99;54.31;99917.72;5030454;28;20049;-82
2021/05/08 07:44:16;;;;;;;11.90;8.73;;;;;;;12.07;53.62;99914.66;5029762;28;20063;-81
2021/05/08 07:46:42;;;;;;;11.35;8.38;;;;;;;12.15;53.49;99912.38;5015000;28;20046;-82
2021/05/08 07:49:09;;;;;;;12.40;9.27;;;;;;;12.24;53.15;99908.34;5010360;28;20133;-82
2021/05/08 07:51:35;;;;;;;14.30;10.50;;;;;;;12.32;53.23;99900.81;5010288;28;20054;-82
2021/05/08 07:54:03;;;;;;;14.32;9.15;;;;;;;12.42;52.93;99900.22;5017707;28;20042;-82
2021/05/08 07:56:33;;;;;;;13.02;9.05;;;;;;;12.50;51.60;99892.69;5033680;28;20049;-82
2021/05/08 07:58:59;;;;;;;10.95;7.72;;;;;;;12.62;52.40;99891.03;5034487;28;20046;-82
2021/05/08 08:01:25;;;;;;;12.90;7.90;;;;;;;12.71;52.11;99894.91;5033624;28;20119;-82
2021/05/08 08:03:51;;;;;;;10.60;7.50;;;;;;;12.82;52.19;99896.88;5035718;28;20053;-82
2021/05/08 08:06:17;;;;;;;10.93;7.63;;;;;;;12.92;52.26;99886.53;5035210;28;20506;-82
2021/05/08 08:08:44;;;;;;;9.77;6.88;;;;;;;13.02;51.48;99890.28;5035854;28;20061;-82
2021/05/08 08:11:10;;;;;;;10.55;7.00;;;;;;;13.11;51.40;99887.03;5035816;28;20402;-82
2021/05/08 08:13:40;;;;;;;9.77;7.60;;;;;;;13.22;50.84;99885.47;5035727;28;20056;-82
2021/05/08 08:16:06;;;;;;;8.45;6.45;;;;;;;13.30;50.66;99891.09;5035557;28;20073;-82
2021/05/08 08:18:32;;;;;;;7.97;6.00;;;;;;;13.37;51.06;99881.81;5033490;28;20049;-82
2021/05/08 08:20:58;;;;;;;9.23;5.75;;;;;;;13.47;50.95;99887.34;5035614;28;20108;-82
2021/05/08 08:23:24;;;;;;;9.38;6.07;;;;;;;13.58;50.39;99897.22;5035398;28;20059;-82
2021/05/08 08:25:50;;;;;;;8.98;5.95;;;;;;;13.69;50.37;99888.56;5035252;28;20518;-82
2021/05/08 08:28:17;;;;;;;12.07;7.38;;;;;;;13.82;50.08;99883.25;5035076;28;20499;-82
2021/05/08 08:30:43;;;;;;;10.60;7.40;;;;;;;13.93;50.38;99875.44;5034943;28;20057;-82
2021/05/08 08:33:10;;;;;;;12.43;8.20;;;;;;;14.05;49.95;99876.38;5035005;28;20049;-82
2021/05/08 08:35:36;;;;;;;11.93;7.63;;;;;;;14.15;50.06;99871.31;5027954;28;20061;-82
2021/05/08 08:38:02;;;;;;;11.40;8.35;;;;;;;14.26;49.94;99873.19;5015316;28;20050;-82
2021/05/08 08:40:28;;;;;;;10.43;7.88;;;;;;;14.39;49.87;99867.03;5013633;28;20053;-82
2021/05/08 08:42:55;;;;;;;10.85;8.70;;;;;;;14.50;49.56;99874.19;5015186;28;20058;-83
2021/05/08 08:45:21;;;;;;;12.93;8.77;;;;;;;14.58;48.79;99863.91;5015176;28;20057;-83
2021/05/08 08:47:47;;;;;;;14.13;9.88;;;;;;;14.67;48.67;99859.72;5015402;28;20077;-83
2021/05/08 08:50:20;;;;;;;12.02;8.98;;;;;;;14.74;48.44;99855.69;5015087;28;20057;-82
2021/05/08 08:52:46;;;;;;;11.85;9.05;;;;;;;14.83;49.11;99859.47;5016698;28;20072;-82
2021/05/08 08:55:12;;;;;;;14.88;9.00;;;;;;;14.92;49.10;99856.13;5024541;28;20049;-82
2021/05/08 08:57:41;;;;;;;12.23;8.85;;;;;;;15.02;48.81;99852.84;5035264;28;20046;-82
2021/05/08 09:00:17;;;;;;;11.00;8.65;;;;;;;15.09;46.89;99848.75;5034800;28;20057;-82
2021/05/08 09:02:46;;;;;;;10.20;7.93;;;;;;;15.22;48.29;99843.38;5034768;28;20053;-83
2021/05/08 09:05:14;;;;;;;13.15;9.43;;;;;;;15.32;48.21;99848.81;5033782;28;20054;-83
2021/05/08 09:07:50;;;;;;;11.57;8.80;;;;;;;15.37;47.09;99836.06;5034584;28;20045;-83
2021/05/08 09:10:25;;;;;;;12.73;8.27;;;;;;;15.46;47.20;99834.50;5048412;28;20064;-83
2021/05/08 09:12:53;;;;;;;11.48;8.40;;;;;;;15.57;47.92;99828.38;5034974;28;20059;-82
2021/05/08 09:15:35;;;;;;;13.93;8.88;;;;;;;15.66;46.46;99824.19;5034400;28;20487;-82
2021/05/08 09:18:06;;;;;;;11.43;8.02;;;;;;;15.78;47.95;99817.94;5034375;28;20068;-82
2021/05/08 09:20:47;;;;;;;14.73;9.48;;;;;;;15.85;45.11;99815.63;5034361;28;20049;-83
2021/05/08 09:23:23;;;;;;;12.35;8.77;;;;;;;15.95;46.39;99806.00;5033761;28;20100;-82
2021/05/08 09:26:00;;;;;;;11.30;8.48;;;;;;;16.05;46.75;99810.59;5031435;28;20080;-82
2021/05/08 09:28:28;;;;;;;13.82;9.63;;;;;;;16.13;46.35;99806.38;5034133;28;20072;-82
2021/05/08 09:30:55;;;;;;;13.02;9.52;;;;;;;16.18;46.35;99805.16;5034260;28;20143;-82
2021/05/08 09:33:23;;;;;;;14.27;9.40;;;;;;;16.18;46.23;99800.66;5033274;28;20049;-82
2021/05/08 09:36:05;;;;;;;13.00;9.50;;;;;;;16.16;45.64;99794.66;5033827;28;20064;-81
2021/05/08 09:38:42;;;;;;;11.63;8.60;;;;;;;16.19;44.59;99793.56;5033406;28;20056;-82
2021/05/08 09:41:19;;;;;;;12.10;8.48;;;;;;;16.22;45.13;99778.22;5031912;28;20053;-83
2021/05/08 09:43:47;;;;;;;10.10;7.93;;;;;;;16.23;45.74;99779.91;5033762;28;20457;-82
2021/05/08 09:46:28;;;;;;;11.00;8.52;;;;;;;16.23;45.76;99782.53;5033872;28;20045;-83
2021/05/08 09:49:23;;;;;;;11.73;8.25;;;;;;;16.27;45.45;99775.19;5034249;28;20059;-82
2021/05/08 09:51:59;;;;;;;11.20;7.88;;;;;;;16.32;44.58;99780.13;5025191;28;20123;-82
2021/05/08 09:54:27;;;;;;;9.85;8.07;;;;;;;16.37;45.75;99772.66;5033577;28;20049;-82
2021/05/08 09:56:53;;;;;;;11.02;7.90;;;;;;;16.38;46.24;99771.66;5033912;28;20045;-83
2021/05/08 09:59:41;;;;;;;8.85;7.22;;;;;;;16.35;43.97;99770.09;5031968;28;20053;-82
2021/05/08 10:02:08;;;;;;;12.15;7.68;;;;;;;16.42;46.12;99767.78;5033183;28;20090;-83
2021/05/08 10:04:51;;;;;;;11.13;7.00;;;;;;;16.43;43.51;99766.81;5034165;28;20454;-82
2021/05/08 10:07:21;;;;;;;13.73;8.63;;;;;;;16.48;45.20;99769.94;5034336;28;20475;-83
2021/05/08 10:09:51;;;;;;;10.63;7.70;;;;;;;16.50;44.83;99760.03;5033611;28;20513;-82
2021/05/08 10:12:24;;;;;;;9.32;8.10;;;;;;;16.50;44.83;99757.38;5033512;28;20506;-82
2021/05/08 10:14:55;;;;;;;13.45;7.80;;;;;;;16.53;44.41;99746.47;5027996;28;20050;-82
2021/05/08 10:17:23;;;;;;;7.93;6.20;;;;;;;16.61;45.70;99750.31;5013978;28;20046;-82
2021/05/08 10:20:00;;;;;;;9.55;7.25;;;;;;;16.64;43.87;99737.63;5014138;28;20089;-82
2021/05/08 10:22:33;;;;;;;11.88;7.60;;;;;;;16.72;44.49;99736.16;5014924;28;20446;-82
2021/05/08 10:25:05;;;;;;;9.38;6.60;;;;;;;16.78;44.38;99732.97;5012516;28;20561;-82
2021/05/08 10:27:31;;;;;;;9.90;6.85;;;;;;;16.85;45.06;99735.97;5013710;28;20084;-82
2021/05/08 10:29:58;;;;;;;8.82;6.38;;;;;;;16.89;45.74;99732.06;5013943;28;20064;-82
2021/05/08 10:32:25;;;;;;;7.95;6.25;;;;;;;16.94;45.49;99736.03;5016884;28;20068;-83
2021/05/08 10:34:53;;;;;;;9.40;6.80;;;;;;;17.02;44.71;99729.22;5013554;28;20583;-82
2021/05/08 10:37:20;;;;;;;12.05;6.93;;;;;;;17.08;44.53;99730.56;5013281;28;20053;-83
2021/05/08 10:40:04;;;;;;;10.30;6.82;;;;;;;17.14;44.26;99719.38;5013326;28;20054;-82
2021/05/08 10:42:40;;;;;;;8.48;6.45;;;;;;;17.19;40.94;99722.50;5012144;28;20062;-82
2021/05/08 10:45:27;;;;;;;9.52;6.13;;;;;;;17.28;44.51;99720.88;5013273;28;20058;-82
2021/05/08 10:48:00;;;;;;;8.98;6.18;;;;;;;17.36;44.62;99707.75;5026206;28;20060;-82
2021/05/08 10:50:39;;;;;;;8.25;6.03;;;;;;;17.40;42.06;99706.50;5033719;28;20608;-83
2021/05/08 10:53:08;;;;;;;7.88;5.60;;;;;;;17.54;43.80;99702.63;5033839;28;20053;-82
2021/05/08 10:55:44;;;;;;;9.40;6.15;;;;;;;17.66;43.23;99691.88;5033140;28;20619;-83
2021/05/08 10:58:19;;;;;;;10.15;6.03;;;;;;;17.87;43.96;99694.47;5030103;28;20129;-83
2021/05/08 11:00:48;;;;;;;6.95;4.88;;;;;;;18.06;44.49;99690.16;5012869;28;20522;-84
2021/05/08 11:03:15;;;;;;;8.40;5.93;;;;;;;18.22;43.10;99681.66;5012573;28;20054;-84
2021/05/08 11:06:11;;;;;;;9.02;5.55;;;;;;;18.34;42.24;99679.69;5012661;28;20058;-84
2021/05/08 11:08:37;;;;;;;7.60;5.43;;;;;;;18.54;43.22;99685.84;5011025;28;20144;-84
2021/05/08 11:11:07;;;;;;;7.95;5.20;;;;;;;18.70;43.26;99673.78;5011710;28;20085;-83
2021/05/08 11:13:42;;;;;;;9.02;5.25;;;;;;;18.81;36.25;99676.31;5026638;28;20053;-84
2021/05/08 11:16:40;;;;;;;7.18;5.15;;;;;;;18.98;41.13;99660.53;5031656;28;20521;-84
2021/05/08 11:19:21;;;;;;;8.30;5.22;;;;;;;19.11;39.78;99658.41;5029990;28;20514;-83
2021/05/08 11:21:47;;;;;;;7.20;5.10;;;;;;;19.22;41.26;99662.72;5031630;28;20057;-83
2021/05/08 11:24:32;;;;;;;8.07;5.00;;;;;;;19.23;39.52;99652.91;5031439;28;20054;-83
2021/05/08 11:26:59;;;;;;;9.30;5.07;;;;;;;19.28;40.33;99645.28;5031450;28;20049;-83
2021/05/08 11:29:28;;;;;;;6.10;4.80;;;;;;;19.25;39.02;99641.09;5021583;28;20072;-83
2021/05/08 11:31:57;;;;;;;7.25;4.35;;;;;;;19.19;38.92;99638.16;5015851;28;20050;-83
2021/05/08 11:34:29;;;;;;;9.57;4.28;;;;;;;19.11;38.59;99639.72;5016248;28;20053;-84
2021/05/08 11:37:01;;;;;;;4.80;3.28;;;;;;;18.98;38.37;99639.19;5016181;28;20049;-83